createdAt,value
2023-05-10T00:01:46.863Z,75.00
2023-05-10T00:04:14.628Z,75.30
2023-05-10T00:06:42.023Z,75.20
2023-05-10T00:09:09.364Z,75.00
2023-05-10T00:11:36.767Z,75.50
2023-05-10T00:14:04.212Z,76.20
2023-05-10T00:16:31.524Z,76.80
2023-05-10T00:18:58.955Z,77.80
2023-05-10T00:21:26.207Z,78.30
2023-05-10T00:23:53.687Z,78.10
2023-05-10T00:26:21.504Z,77.70
2023-05-10T00:28:54.294Z,77.50
2023-05-10T00:31:21.651Z,77.30
2023-05-10T00:33:52.113Z,76.90
2023-05-10T00:36:19.565Z,76.70
2023-05-10T00:38:47.170Z,76.60
2023-05-10T00:41:15.675Z,76.50
2023-05-10T00:43:43.551Z,76.30
2023-05-10T00:46:11.046Z,76.40
2023-05-10T00:48:39.131Z,76.50
2023-05-10T00:51:07.272Z,76.50
2023-05-10T00:53:36.322Z,76.30
2023-05-10T00:56:04.926Z,76.40
2023-05-10T00:58:32.570Z,76.60
2023-05-10T01:01:00.746Z,76.80
2023-05-10T01:03:29.085Z,77.00
2023-05-10T01:05:56.895Z,77.10
2023-05-10T01:08:26.214Z,77.20
2023-05-10T01:10:53.820Z,77.30
2023-05-10T01:13:38.520Z,77.50
2023-05-10T01:16:07.805Z,77.60
2023-05-10T01:18:39.316Z,77.60
2023-05-10T01:21:41.683Z,77.50
2023-05-10T01:24:27.297Z,77.70
2023-05-10T01:27:03.397Z,77.80
2023-05-10T01:30:05.047Z,78.00
2023-05-10T01:32:59.483Z,78.10
2023-05-10T01:35:43.409Z,78.70
2023-05-10T01:38:24.002Z,79.10
2023-05-10T01:41:01.100Z,79.40
2023-05-10T01:43:34.387Z,80.00
2023-05-10T01:46:13.586Z,80.80
2023-05-10T01:48:48.917Z,80.90
2023-05-10T01:51:21.685Z,81.20
2023-05-10T01:53:50.391Z,81.70
2023-05-10T01:56:22.487Z,81.70
2023-05-10T01:58:52.229Z,81.30
2023-05-10T02:01:23.182Z,81.40
2023-05-10T02:03:53.029Z,81.90
2023-05-10T02:06:23.278Z,81.90
2023-05-10T02:08:51.959Z,81.80
2023-05-10T02:11:22.707Z,81.10
2023-05-10T02:13:51.770Z,79.40
2023-05-10T02:16:23.006Z,79.10
2023-05-10T02:18:53.809Z,79.00
2023-05-10T02:21:22.350Z,78.70
2023-05-10T02:23:52.407Z,78.60
2023-05-10T02:26:22.280Z,78.70
2023-05-10T02:28:51.199Z,78.50
2023-05-10T02:31:20.177Z,78.50
2023-05-10T02:33:48.139Z,78.80
2023-05-10T02:36:16.390Z,78.70
2023-05-10T02:38:48.155Z,79.20
2023-05-10T02:41:16.171Z,79.10
2023-05-10T02:43:44.582Z,78.80
2023-05-10T02:46:12.222Z,78.70
2023-05-10T02:48:41.190Z,78.50
2023-05-10T02:51:09.311Z,78.50
2023-05-10T02:53:39.451Z,78.40
2023-05-10T02:56:18.374Z,78.20
2023-05-10T02:58:45.676Z,78.00
2023-05-10T03:01:13.090Z,76.80
2023-05-10T03:03:40.391Z,76.10
2023-05-10T03:06:08.640Z,75.90
2023-05-10T03:08:35.942Z,74.80
2023-05-10T03:11:29.423Z,74.30
2023-05-10T03:14:22.343Z,73.70
2023-05-10T03:16:59.074Z,73.50
2023-05-10T03:19:33.202Z,73.70
2023-05-10T03:22:05.540Z,73.80
2023-05-10T03:24:36.606Z,74.10
2023-05-10T03:27:06.216Z,74.40
2023-05-10T03:29:37.451Z,74.60
2023-05-10T03:32:05.835Z,75.20
2023-05-10T03:34:33.376Z,75.40
2023-05-10T03:37:00.748Z,76.50
2023-05-10T03:39:31.767Z,77.30
2023-05-10T03:42:00.996Z,77.30
2023-05-10T03:44:28.358Z,77.40
2023-05-10T03:46:56.605Z,75.60
2023-05-10T03:49:24.625Z,75.40
2023-05-10T03:51:52.410Z,75.80
2023-05-10T03:54:19.772Z,76.20
2023-05-10T03:56:49.071Z,76.30
2023-05-10T03:59:17.656Z,75.30
2023-05-10T04:01:45.144Z,75.20
2023-05-10T04:04:12.656Z,75.80
2023-05-10T04:06:40.150Z,75.30
2023-05-10T04:09:07.492Z,75.00
2023-05-10T04:11:34.890Z,75.10
2023-05-10T04:14:02.228Z,75.60
2023-05-10T04:16:29.597Z,75.30
2023-05-10T04:18:58.261Z,74.80
2023-05-10T04:21:25.783Z,74.50
2023-05-10T04:23:53.097Z,74.00
2023-05-10T04:26:21.301Z,73.50
2023-05-10T04:28:48.715Z,73.40
2023-05-10T04:31:16.109Z,73.30
2023-05-10T04:33:43.370Z,72.80
2023-05-10T04:36:10.993Z,72.60
2023-05-10T04:38:38.362Z,72.20
2023-05-10T04:41:10.132Z,71.70
2023-05-10T04:43:38.540Z,71.50
2023-05-10T04:46:06.641Z,71.20
2023-05-10T04:48:34.220Z,71.10
2023-05-10T04:51:01.604Z,70.60
2023-05-10T04:53:28.952Z,70.30
2023-05-10T04:55:56.292Z,70.10
2023-05-10T04:58:23.710Z,69.80
2023-05-10T05:00:51.155Z,69.40
2023-05-10T05:03:18.634Z,69.20
2023-05-10T05:05:46.175Z,68.70
2023-05-10T05:08:13.973Z,67.90
2023-05-10T05:10:41.679Z,67.90
2023-05-10T05:13:09.007Z,67.50
2023-05-10T05:15:36.395Z,66.90
2023-05-10T05:18:03.849Z,67.40
2023-05-10T05:20:34.655Z,66.60
2023-05-10T05:23:02.297Z,66.00
2023-05-10T05:25:29.732Z,66.10
2023-05-10T05:27:57.084Z,65.10
2023-05-10T05:30:24.573Z,64.60
2023-05-10T05:32:51.924Z,63.80
2023-05-10T05:35:19.586Z,63.60
2023-05-10T05:37:47.074Z,63.50
2023-05-10T05:40:15.379Z,63.90
2023-05-10T05:42:43.105Z,64.50
2023-05-10T05:45:14.356Z,64.90
2023-05-10T05:47:42.074Z,66.30
2023-05-10T05:50:09.929Z,67.90
2023-05-10T05:52:37.414Z,68.10
2023-05-10T05:55:05.072Z,67.80
2023-05-10T05:57:32.491Z,67.70
2023-05-10T06:00:00.449Z,67.00
2023-05-10T06:02:27.933Z,65.90
2023-05-10T06:04:55.520Z,66.00
2023-05-10T06:07:23.062Z,65.80
2023-05-10T06:09:50.563Z,66.40
2023-05-10T06:12:28.873Z,65.40
2023-05-10T06:14:56.422Z,64.80
2023-05-10T06:17:23.751Z,64.20
2023-05-10T06:19:54.316Z,64.20
2023-05-10T06:22:23.786Z,65.50
2023-05-10T06:24:51.148Z,65.60
2023-05-10T06:27:18.481Z,65.40
2023-05-10T06:29:45.798Z,64.30
2023-05-10T06:32:13.134Z,64.80
2023-05-10T06:34:40.563Z,65.30
2023-05-10T06:37:08.102Z,65.70
2023-05-10T06:39:35.459Z,64.90
2023-05-10T06:42:03.965Z,65.10
2023-05-10T06:44:34.694Z,65.70
2023-05-10T06:47:02.979Z,65.10
2023-05-10T06:49:30.409Z,65.20
2023-05-10T06:51:58.125Z,64.80
2023-05-10T06:54:25.443Z,64.90
2023-05-10T06:56:52.919Z,65.30
2023-05-10T06:59:20.727Z,65.80
2023-05-10T07:01:48.171Z,65.90
2023-05-10T07:04:15.585Z,65.50
2023-05-10T07:06:42.838Z,66.10
2023-05-10T07:09:10.355Z,66.50
2023-05-10T07:11:38.654Z,65.70
2023-05-10T07:14:06.387Z,64.40
2023-05-10T07:16:33.834Z,65.60
2023-05-10T07:19:01.212Z,65.70
2023-05-10T07:21:29.935Z,66.00
2023-05-10T07:23:57.455Z,66.10
2023-05-10T07:26:25.186Z,64.70
2023-05-10T07:28:52.572Z,63.70
2023-05-10T07:31:19.911Z,63.80
2023-05-10T07:33:47.550Z,63.80
2023-05-10T07:36:17.791Z,64.60
2023-05-10T07:38:48.919Z,64.50
2023-05-10T07:41:16.314Z,64.30
2023-05-10T07:43:43.622Z,64.70
2023-05-10T07:46:12.264Z,64.90
2023-05-10T07:48:39.784Z,65.10
2023-05-10T07:51:08.373Z,65.00
2023-05-10T07:53:35.664Z,65.80
2023-05-10T07:56:23.147Z,65.80
2023-05-10T07:58:52.156Z,64.90
2023-05-10T08:01:20.884Z,63.20
2023-05-10T08:03:49.018Z,62.60
2023-05-10T08:06:17.949Z,61.80
2023-05-10T08:08:55.954Z,61.30
2023-05-10T08:14:01.204Z,61.00
2023-05-10T08:16:34.364Z,61.60
2023-05-10T08:19:02.081Z,61.70
2023-05-10T08:21:29.749Z,62.00
2023-05-10T08:23:57.188Z,63.10
2023-05-10T08:26:27.622Z,62.70
2023-05-10T08:29:08.316Z,62.40
2023-05-10T08:31:39.027Z,62.00
2023-05-10T08:34:09.049Z,61.30
2023-05-10T08:36:37.921Z,62.00
2023-05-10T08:39:30.544Z,63.10
2023-05-10T08:42:06.365Z,63.20
2023-05-10T08:44:40.338Z,63.50
2023-05-10T08:47:09.980Z,63.50
2023-05-10T08:49:39.042Z,63.50
2023-05-10T08:52:21.841Z,62.20
2023-05-10T08:54:50.389Z,62.10
2023-05-10T08:57:18.113Z,63.30
2023-05-10T08:59:47.151Z,63.10
2023-05-10T09:02:18.794Z,63.40
2023-05-10T09:04:46.642Z,63.70
2023-05-10T09:07:22.000Z,62.10
2023-05-10T09:09:57.395Z,60.50
2023-05-10T09:12:30.310Z,59.20
2023-05-10T09:15:03.201Z,57.90
2023-05-10T09:17:37.364Z,59.00
2023-05-10T09:20:07.931Z,61.40
2023-05-10T09:22:36.830Z,62.80
2023-05-10T09:25:18.329Z,62.50
2023-05-10T09:27:48.859Z,58.20
2023-05-10T09:30:30.611Z,55.90
2023-05-10T09:33:02.044Z,59.20
2023-05-10T09:35:34.501Z,60.50
2023-05-10T09:38:08.146Z,60.40
2023-05-10T09:40:36.106Z,61.50
2023-05-10T09:43:09.150Z,61.00
2023-05-10T09:45:41.486Z,60.80
2023-05-10T09:48:12.096Z,59.70
2023-05-10T09:50:41.787Z,59.80
2023-05-10T09:53:09.126Z,61.10
2023-05-10T09:55:47.085Z,64.80
2023-05-10T09:58:15.512Z,66.40
2023-05-10T10:00:45.612Z,63.70
2023-05-10T10:03:23.847Z,65.40
2023-05-10T10:05:54.373Z,68.20
2023-05-10T10:08:21.886Z,71.80
2023-05-10T10:10:56.059Z,68.30
2023-05-10T10:13:23.474Z,66.40
2023-05-10T10:15:53.839Z,66.60
2023-05-10T10:18:25.678Z,66.20
2023-05-10T10:21:00.794Z,64.20
2023-05-10T10:23:30.571Z,60.40
2023-05-10T10:26:06.586Z,59.20
2023-05-10T10:29:01.842Z,57.80
2023-05-10T10:32:01.209Z,55.50
2023-05-10T10:34:35.307Z,55.40
2023-05-10T10:37:09.451Z,51.50
2023-05-10T10:39:39.303Z,52.40
2023-05-10T10:42:10.464Z,53.20
2023-05-10T10:44:39.541Z,54.00
2023-05-10T10:47:34.314Z,53.40
2023-05-10T10:50:05.031Z,55.00
2023-05-10T10:52:39.773Z,56.40
2023-05-10T10:55:22.355Z,57.90
2023-05-10T10:58:13.956Z,61.70
2023-05-10T11:00:42.942Z,64.70
2023-05-10T11:03:18.237Z,65.20
2023-05-10T11:05:47.859Z,63.40
2023-05-10T11:08:23.264Z,63.20
2023-05-10T11:10:59.551Z,59.60
2023-05-10T11:13:37.268Z,59.50
2023-05-10T11:16:21.103Z,56.40
2023-05-10T11:19:09.546Z,55.00
2023-05-10T11:21:49.824Z,55.10
2023-05-10T11:24:23.391Z,55.80
2023-05-10T11:26:54.612Z,57.80
2023-05-10T11:29:22.262Z,60.30
2023-05-10T11:31:50.825Z,63.30
2023-05-10T11:34:34.797Z,63.80
2023-05-10T11:37:02.905Z,62.90
2023-05-10T11:39:32.038Z,60.90
2023-05-10T11:42:00.264Z,59.60
2023-05-10T11:44:34.313Z,59.70
2023-05-10T11:47:04.542Z,59.60
2023-05-10T11:49:32.055Z,60.60
2023-05-10T11:52:07.639Z,60.70
2023-05-10T11:54:36.359Z,60.70
2023-05-10T11:57:04.274Z,59.40
2023-05-10T11:59:31.576Z,58.10
2023-05-10T12:01:59.278Z,57.60
2023-05-10T12:04:28.953Z,59.20
2023-05-10T12:06:56.798Z,59.90
2023-05-10T12:12:00.337Z,58.20
2023-05-10T12:14:27.725Z,58.80
2023-05-10T12:16:55.244Z,58.40
2023-05-10T12:19:22.843Z,58.30
2023-05-10T12:21:50.522Z,54.40
2023-05-10T12:24:19.238Z,53.30
2023-05-10T12:27:07.698Z,51.40
2023-05-10T12:29:35.193Z,53.80
2023-05-10T12:32:04.001Z,51.80
2023-05-10T12:34:32.531Z,50.60
2023-05-10T12:37:03.756Z,52.00
2023-05-10T12:39:45.379Z,51.40
2023-05-10T12:42:13.047Z,51.30
2023-05-10T12:44:41.166Z,51.00
2023-05-10T12:47:08.553Z,50.30
2023-05-10T12:49:36.064Z,51.20
2023-05-10T12:52:03.618Z,52.50
2023-05-10T12:54:31.098Z,53.30
2023-05-10T12:56:58.815Z,53.30
2023-05-10T12:59:26.253Z,54.20
2023-05-10T13:01:53.622Z,52.60
2023-05-10T13:04:21.092Z,52.70
2023-05-10T13:06:48.506Z,53.30
2023-05-10T13:09:16.344Z,53.00
2023-05-10T13:11:43.748Z,53.90
2023-05-10T13:14:11.000Z,53.50
2023-05-10T13:16:38.452Z,53.90
2023-05-10T13:19:05.916Z,53.20
2023-05-10T13:21:33.427Z,52.90
2023-05-10T13:24:01.462Z,51.80
2023-05-10T13:26:29.327Z,52.00
2023-05-10T13:28:56.840Z,53.00
2023-05-10T13:31:24.203Z,52.50
2023-05-10T13:33:51.574Z,52.40
2023-05-10T13:36:18.825Z,51.90
2023-05-10T13:38:46.164Z,53.00
2023-05-10T13:41:15.777Z,54.10
2023-05-10T13:43:43.024Z,55.10
2023-05-10T13:46:10.436Z,56.00
2023-05-10T13:48:40.652Z,55.80
2023-05-10T13:51:08.067Z,56.00
2023-05-10T13:53:40.871Z,56.00
2023-05-10T13:56:08.280Z,56.30
2023-05-10T13:58:36.983Z,56.00
2023-05-10T14:01:05.981Z,56.70
2023-05-10T14:03:33.828Z,58.40
2023-05-10T14:06:01.406Z,60.60
2023-05-10T14:08:28.870Z,61.90
2023-05-10T14:10:57.538Z,62.50
2023-05-10T14:13:25.786Z,63.60
2023-05-10T14:15:54.920Z,64.80
2023-05-10T14:18:22.378Z,64.50
2023-05-10T14:20:49.929Z,67.00
2023-05-10T14:23:17.182Z,67.00
2023-05-10T14:25:44.691Z,70.00
2023-05-10T14:28:13.403Z,69.70
2023-05-10T14:30:40.765Z,69.90
2023-05-10T14:33:09.128Z,72.40
2023-05-10T14:35:38.830Z,75.00
2023-05-10T14:38:06.512Z,77.40
2023-05-10T14:40:34.729Z,76.80
2023-05-10T14:43:02.386Z,76.80
2023-05-10T14:45:29.756Z,76.10
2023-05-10T14:47:57.101Z,75.70
2023-05-10T14:50:35.754Z,74.60
2023-05-10T14:53:03.637Z,73.80
2023-05-10T14:55:31.137Z,72.90
2023-05-10T14:57:59.388Z,73.90
2023-05-10T15:00:27.223Z,75.90
2023-05-10T15:02:54.687Z,74.40
2023-05-10T15:05:22.722Z,73.70
2023-05-10T15:07:50.677Z,73.00
2023-05-10T15:10:18.916Z,74.80
2023-05-10T15:12:46.207Z,74.90
2023-05-10T15:15:13.516Z,74.90
2023-05-10T15:17:40.732Z,75.30
2023-05-10T15:20:08.794Z,74.20
2023-05-10T15:22:39.444Z,73.50
2023-05-10T15:25:07.484Z,72.10
2023-05-10T15:27:34.785Z,70.80
2023-05-10T15:30:02.200Z,71.50
2023-05-10T15:32:30.373Z,72.60
2023-05-10T15:34:57.612Z,74.10
2023-05-10T15:37:25.594Z,74.00
2023-05-10T15:39:52.768Z,74.10
2023-05-10T15:42:20.350Z,74.00
2023-05-10T15:44:51.352Z,74.80
2023-05-10T15:47:18.753Z,74.70
2023-05-10T15:49:46.071Z,75.00
2023-05-10T15:52:13.611Z,77.20
2023-05-10T15:54:40.977Z,76.70
2023-05-10T15:57:08.394Z,77.20
2023-05-10T15:59:36.108Z,78.70
2023-05-10T16:02:08.989Z,80.50
2023-05-10T16:04:36.442Z,81.30
2023-05-10T16:07:03.903Z,80.70
2023-05-10T16:09:31.184Z,82.20
2023-05-10T16:11:58.627Z,82.50
2023-05-10T16:14:26.024Z,84.90
2023-05-10T16:16:53.463Z,85.40
2023-05-10T16:19:20.905Z,85.30
2023-05-10T16:21:48.549Z,87.60
2023-05-10T16:24:15.952Z,88.40
2023-05-10T16:26:43.571Z,89.80
2023-05-10T16:29:11.222Z,91.70
2023-05-10T16:31:38.692Z,92.40
2023-05-10T16:34:06.056Z,92.50
2023-05-10T16:36:33.957Z,92.90
2023-05-10T16:39:01.541Z,94.50
2023-05-10T16:41:28.872Z,96.20
2023-05-10T16:43:57.796Z,97.20
2023-05-10T16:46:25.212Z,97.70
2023-05-10T16:48:52.567Z,98.30
2023-05-10T16:51:19.890Z,99.90
2023-05-10T16:53:47.172Z,99.90
2023-05-10T16:56:14.453Z,99.90
2023-05-10T16:58:41.996Z,99.90
2023-05-10T17:01:09.788Z,99.90
2023-05-10T17:03:37.108Z,99.90
2023-05-10T17:06:06.285Z,99.90
2023-05-10T17:08:33.933Z,99.90
2023-05-10T17:11:04.600Z,99.90
2023-05-10T17:13:32.160Z,99.90
2023-05-10T17:16:03.608Z,99.90
2023-05-10T17:18:31.613Z,99.90
2023-05-10T17:20:59.008Z,99.90
2023-05-10T17:23:26.408Z,99.90
2023-05-10T17:25:53.786Z,99.90
2023-05-10T17:28:21.087Z,99.90
2023-05-10T17:30:55.272Z,99.90
2023-05-10T17:33:22.616Z,99.90
2023-05-10T17:35:50.476Z,99.90
2023-05-10T17:38:17.934Z,99.90
2023-05-10T17:40:45.196Z,99.90
2023-05-10T17:43:12.735Z,99.90
2023-05-10T17:45:40.036Z,99.90
2023-05-10T17:48:08.004Z,99.90
2023-05-10T17:50:35.528Z,99.90
2023-05-10T17:53:03.227Z,99.90
2023-05-10T17:55:30.994Z,99.90
2023-05-10T17:57:59.722Z,99.90
2023-05-10T18:00:27.086Z,99.90
2023-05-10T18:02:54.585Z,99.90
2023-05-10T18:05:22.320Z,99.90
2023-05-10T18:07:50.104Z,99.90
2023-05-10T18:10:17.361Z,99.90
2023-05-10T18:12:44.722Z,99.90
2023-05-10T18:15:12.325Z,99.90
2023-05-10T18:17:39.738Z,99.90
2023-05-10T18:20:08.608Z,99.90
2023-05-10T18:22:37.143Z,99.90
2023-05-10T18:25:05.155Z,99.90
2023-05-10T18:27:32.907Z,99.90
2023-05-10T18:30:00.188Z,99.90
2023-05-10T18:32:28.152Z,99.90
2023-05-10T18:34:56.708Z,99.90
2023-05-10T18:37:24.241Z,99.90
2023-05-10T18:39:52.271Z,99.90
2023-05-10T18:42:20.613Z,99.90
2023-05-10T18:44:48.035Z,99.90
2023-05-10T18:47:15.327Z,99.90
2023-05-10T18:49:42.774Z,99.90
2023-05-10T18:52:10.957Z,99.90
2023-05-10T18:54:38.467Z,99.90
2023-05-10T18:57:06.304Z,99.90
2023-05-10T18:59:34.110Z,99.90
2023-05-10T19:02:01.565Z,99.90
2023-05-10T19:04:29.075Z,99.90
2023-05-10T19:06:56.459Z,99.90
2023-05-10T19:09:24.389Z,99.90
2023-05-10T19:11:52.230Z,99.90
2023-05-10T19:14:19.814Z,99.90
2023-05-10T19:16:53.707Z,99.90
2023-05-10T19:19:21.378Z,99.90
2023-05-10T19:21:48.780Z,99.90
2023-05-10T19:24:16.322Z,99.90
2023-05-10T19:26:43.863Z,99.90
2023-05-10T19:29:11.163Z,99.90
2023-05-10T19:31:38.608Z,99.90
2023-05-10T19:34:06.654Z,99.90
2023-05-10T19:36:34.868Z,99.90
2023-05-10T19:39:02.519Z,99.90
2023-05-10T19:41:29.923Z,99.90
2023-05-10T19:43:57.215Z,99.90
2023-05-10T19:46:24.760Z,99.90
2023-05-10T19:48:52.754Z,99.90
2023-05-10T19:51:20.058Z,99.90
2023-05-10T19:53:47.546Z,99.90
2023-05-10T19:56:15.058Z,99.90
2023-05-10T19:58:42.364Z,99.90
2023-05-10T20:01:09.660Z,99.90
2023-05-10T20:03:37.212Z,99.90
2023-05-10T20:06:04.730Z,99.90
2023-05-10T20:08:32.079Z,99.90
2023-05-10T20:11:02.353Z,99.90
2023-05-10T20:13:30.150Z,99.90
2023-05-10T20:15:58.548Z,99.90
2023-05-10T20:18:27.166Z,99.90
2023-05-10T20:20:55.361Z,99.90
2023-05-10T20:23:23.038Z,99.90
2023-05-10T20:25:50.704Z,99.90
2023-05-10T20:28:23.054Z,99.90
2023-05-10T20:30:54.910Z,99.90
2023-05-10T20:33:25.430Z,99.90
2023-05-10T20:35:52.848Z,99.90
2023-05-10T20:38:20.149Z,99.90
2023-05-10T20:40:47.582Z,99.90
2023-05-10T20:43:14.868Z,99.90
2023-05-10T20:45:42.603Z,99.90
2023-05-10T20:48:16.157Z,99.90
2023-05-10T20:50:43.781Z,99.90
2023-05-10T20:53:11.436Z,99.90
2023-05-10T20:55:39.141Z,99.90
2023-05-10T20:58:06.649Z,99.90
2023-05-10T21:00:34.220Z,99.90
2023-05-10T21:03:02.025Z,99.90
2023-05-10T21:05:29.392Z,99.90
2023-05-10T21:08:00.193Z,99.90
2023-05-10T21:10:28.613Z,99.90
2023-05-10T21:12:56.477Z,99.90
2023-05-10T21:15:24.880Z,99.90
2023-05-10T21:17:54.134Z,99.90
2023-05-10T21:20:22.095Z,99.90
2023-05-10T21:22:49.748Z,99.90
2023-05-10T21:25:18.455Z,99.90
2023-05-10T21:27:46.253Z,99.90
2023-05-10T21:30:13.679Z,99.90
2023-05-10T21:32:41.102Z,99.90
2023-05-10T21:35:11.596Z,99.90
2023-05-10T21:37:39.186Z,99.90
2023-05-10T21:40:06.895Z,99.90
2023-05-10T21:42:36.982Z,99.90
2023-05-10T21:45:10.093Z,99.90
2023-05-10T21:47:37.522Z,99.90
2023-05-10T21:50:05.218Z,99.90
2023-05-10T21:52:32.620Z,99.90
2023-05-10T21:55:02.713Z,99.90
2023-05-10T21:57:33.080Z,99.90
2023-05-10T22:00:00.439Z,99.90
2023-05-10T22:02:32.300Z,99.90
2023-05-10T22:05:02.536Z,99.90
2023-05-10T22:07:33.479Z,99.90
2023-05-10T22:10:01.134Z,99.90
2023-05-10T22:12:28.682Z,99.90
2023-05-10T22:15:09.330Z,99.90
2023-05-10T22:17:39.690Z,99.90
2023-05-10T22:20:08.754Z,99.90
2023-05-10T22:22:36.914Z,99.90
2023-05-10T22:25:06.418Z,99.90
2023-05-10T22:27:33.890Z,99.90
2023-05-10T22:30:01.637Z,99.90
2023-05-10T22:32:29.150Z,99.90
2023-05-10T22:34:56.600Z,99.90
2023-05-10T22:37:23.865Z,99.90
2023-05-10T22:39:51.217Z,99.90
2023-05-10T22:42:18.564Z,99.90
2023-05-10T22:44:45.803Z,99.90
2023-05-10T22:47:14.030Z,99.90
2023-05-10T22:49:41.302Z,99.90
2023-05-10T22:52:09.183Z,99.90
2023-05-10T22:54:36.590Z,99.90
2023-05-10T22:57:04.130Z,99.90
2023-05-10T22:59:31.602Z,99.90
2023-05-10T23:01:59.012Z,99.90
2023-05-10T23:04:26.502Z,99.90
2023-05-10T23:06:53.884Z,99.90
2023-05-10T23:09:21.498Z,99.90
2023-05-10T23:11:48.762Z,99.90
2023-05-10T23:14:16.210Z,99.90
2023-05-10T23:16:43.798Z,99.90
2023-05-10T23:19:11.100Z,99.90
2023-05-10T23:21:38.736Z,99.90
2023-05-10T23:24:06.526Z,99.90
2023-05-10T23:26:33.782Z,99.90
2023-05-10T23:29:01.964Z,99.90
2023-05-10T23:31:29.469Z,99.90
2023-05-10T23:33:56.769Z,99.90
2023-05-10T23:36:24.168Z,99.90
2023-05-10T23:38:51.557Z,99.90
2023-05-10T23:41:19.066Z,99.90
2023-05-10T23:43:46.288Z,99.90
2023-05-10T23:46:13.597Z,99.90
2023-05-10T23:48:50.278Z,99.90
2023-05-10T23:51:17.586Z,99.90
2023-05-10T23:53:44.907Z,99.90
2023-05-10T23:56:12.172Z,99.90
2023-05-10T23:58:39.494Z,99.90
